createdAt,value
2019-04-27T00:02:24.859Z,4.07
2019-04-27T00:05:08.432Z,6.33
2019-04-27T00:07:51.489Z,10.50
2019-04-27T00:10:34.096Z,9.23
2019-04-27T00:13:05.785Z,4.97
2019-04-27T00:15:55.969Z,5.80
2019-04-27T00:18:38.206Z,10.07
2019-04-27T00:22:05.064Z,9.07
2019-04-27T00:24:35.831Z,6.73
2019-04-27T00:29:43.223Z,6.10
2019-04-27T00:32:14.650Z,6.00
2019-04-27T00:34:44.566Z,7.97
2019-04-27T00:37:53.045Z,8.50
2019-04-27T00:40:54.622Z,7.13
2019-04-27T00:43:26.648Z,4.37
2019-04-27T00:45:56.361Z,6.30
2019-04-27T00:48:27.757Z,5.40
2019-04-27T00:50:57.732Z,8.43
2019-04-27T00:53:46.732Z,7.80
2019-04-27T00:56:46.338Z,9.60
2019-04-27T01:02:33.484Z,8.33
2019-04-27T01:05:03.762Z,5.17
2019-04-27T01:07:55.086Z,9.33
2019-04-27T01:13:20.252Z,3.50
2019-04-27T01:15:50.124Z,5.63
2019-04-27T01:18:19.718Z,7.07
2019-04-27T01:20:49.403Z,5.77
2019-04-27T01:23:24.825Z,5.60
2019-04-27T01:26:13.601Z,9.13
2019-04-27T01:28:49.355Z,6.47
2019-04-27T01:31:19.325Z,7.13
2019-04-27T01:33:50.796Z,10.13
2019-04-27T01:36:21.342Z,10.43
2019-04-27T01:38:52.062Z,6.37
2019-04-27T01:41:21.680Z,8.63
2019-04-27T01:43:52.317Z,6.60
2019-04-27T01:46:21.894Z,6.37
2019-04-27T01:49:09.609Z,10.43
2019-04-27T01:51:40.079Z,8.53
2019-04-27T01:54:12.346Z,8.80
2019-04-27T01:56:42.541Z,8.70
2019-04-27T01:59:12.386Z,10.00
2019-04-27T02:01:52.200Z,5.33
2019-04-27T02:04:34.198Z,9.23
2019-04-27T02:07:30.134Z,5.63
2019-04-27T02:10:00.413Z,8.83
2019-04-27T02:12:44.255Z,10.63
2019-04-27T02:15:20.207Z,9.80
2019-04-27T02:17:51.353Z,8.57
2019-04-27T02:20:21.338Z,7.77
2019-04-27T02:22:51.305Z,10.70
2019-04-27T02:25:21.252Z,7.53
2019-04-27T02:27:59.568Z,9.77
2019-04-27T02:34:09.567Z,6.53
2019-04-27T02:37:02.588Z,8.13
2019-04-27T02:42:23.232Z,9.80
2019-04-27T02:45:15.476Z,7.27
2019-04-27T02:47:51.852Z,11.73
2019-04-27T02:50:16.349Z,7.97
2019-04-27T02:52:50.084Z,5.17
2019-04-27T02:55:20.202Z,9.80
2019-04-27T02:57:50.089Z,9.27
2019-04-27T03:00:40.013Z,10.77
2019-04-27T03:06:30.569Z,8.07
2019-04-27T03:09:34.169Z,7.03
2019-04-27T03:12:21.670Z,8.27
2019-04-27T03:21:05.063Z,11.00
2019-04-27T03:28:24.640Z,7.77
2019-04-27T03:29:24.105Z,6.50
2019-04-27T03:32:05.485Z,13.67
2019-04-27T03:37:21.111Z,11.00
2019-04-27T03:48:59.960Z,8.40
2019-04-27T03:54:41.702Z,9.20
2019-04-27T03:57:29.740Z,5.40
2019-04-27T04:00:24.666Z,9.70
2019-04-27T04:03:00.719Z,14.90
2019-04-27T04:05:31.018Z,7.20
2019-04-27T04:08:00.665Z,12.20
2019-04-27T04:10:33.220Z,7.00
2019-04-27T04:13:10.545Z,7.70
2019-04-27T04:15:52.491Z,8.13
2019-04-27T04:18:22.886Z,12.67
2019-04-27T04:21:23.282Z,8.03
2019-04-27T04:23:53.560Z,8.63
2019-04-27T04:26:35.672Z,8.23
2019-04-27T04:29:05.245Z,13.57
2019-04-27T04:31:35.185Z,10.17
2019-04-27T04:34:19.951Z,8.03
2019-04-27T04:37:09.165Z,8.27
2019-04-27T04:39:40.292Z,10.90
2019-04-27T04:42:30.015Z,9.67
2019-04-27T04:45:15.136Z,8.90
2019-04-27T04:50:50.667Z,12.67
2019-04-27T05:11:36.513Z,11.50
2019-04-27T05:29:33.678Z,13.57
2019-04-27T05:32:28.811Z,9.60
2019-04-27T05:35:09.709Z,11.20
2019-04-27T05:55:24.257Z,12.63
2019-04-27T06:01:12.540Z,12.90
2019-04-27T06:07:14.501Z,11.87
2019-04-27T06:09:47.256Z,15.07
2019-04-27T06:12:17.069Z,11.33
2019-04-27T06:14:49.312Z,11.67
2019-04-27T06:17:23.711Z,10.80
2019-04-27T06:20:00.823Z,9.67
2019-04-27T06:22:30.788Z,11.83
2019-04-27T06:25:03.294Z,8.87
2019-04-27T06:27:54.489Z,7.20
2019-04-27T06:30:25.037Z,9.53
2019-04-27T06:33:13.873Z,11.77
2019-04-27T06:35:43.985Z,13.17
2019-04-27T06:38:14.136Z,6.17
2019-04-27T06:40:59.074Z,9.03
2019-04-27T06:43:30.591Z,13.70
2019-04-27T06:46:01.070Z,13.50
2019-04-27T06:48:32.625Z,11.60
2019-04-27T06:51:03.684Z,10.60
2019-04-27T06:53:40.658Z,7.57
2019-04-27T06:56:15.742Z,12.10
2019-04-27T06:58:45.213Z,13.13
2019-04-27T07:01:15.419Z,16.17
2019-04-27T07:03:48.685Z,15.07
2019-04-27T07:06:19.943Z,16.10
2019-04-27T07:08:55.128Z,19.80
2019-04-27T07:11:26.418Z,23.20
2019-04-27T07:13:55.955Z,15.97
2019-04-27T07:16:25.526Z,15.13
2019-04-27T07:18:55.361Z,17.03
2019-04-27T07:21:25.004Z,11.80
2019-04-27T07:23:59.079Z,14.90
2019-04-27T07:26:30.295Z,22.50
2019-04-27T07:29:05.754Z,13.57
2019-04-27T07:31:35.228Z,24.93
2019-04-27T07:34:04.682Z,13.57
2019-04-27T07:36:35.208Z,13.60
2019-04-27T07:39:07.051Z,18.50
2019-04-27T07:41:38.765Z,18.20
2019-04-27T07:44:33.957Z,12.30
2019-04-27T07:47:20.147Z,28.57
2019-04-27T07:49:49.869Z,14.67
2019-04-27T07:52:20.563Z,17.77
2019-04-27T07:54:50.275Z,16.20
2019-04-27T07:57:20.050Z,20.70
2019-04-27T07:59:55.204Z,14.93
2019-04-27T08:02:24.677Z,19.00
2019-04-27T08:04:54.455Z,20.13
2019-04-27T08:07:25.860Z,16.10
2019-04-27T08:10:01.173Z,15.03
2019-04-27T08:12:28.912Z,15.33
2019-04-27T08:15:00.907Z,13.43
2019-04-27T08:17:30.384Z,11.83
2019-04-27T08:20:02.695Z,10.47
2019-04-27T08:22:32.521Z,13.13
2019-04-27T08:25:03.391Z,14.03
2019-04-27T08:27:39.394Z,13.40
2019-04-27T08:30:29.411Z,17.37
2019-04-27T08:32:59.441Z,17.20
2019-04-27T08:35:32.421Z,26.50
2019-04-27T08:38:02.419Z,18.87
2019-04-27T08:40:31.983Z,22.20
2019-04-27T08:43:02.697Z,18.77
2019-04-27T08:45:32.167Z,17.10
2019-04-27T08:48:01.589Z,21.70
2019-04-27T08:50:39.811Z,20.20
2019-04-27T08:53:10.969Z,27.50
2019-04-27T08:55:40.338Z,23.73
2019-04-27T08:58:13.294Z,21.80
2019-04-27T09:00:42.826Z,22.77
2019-04-27T09:03:12.686Z,26.53
2019-04-27T09:05:42.412Z,32.23
2019-04-27T09:08:30.806Z,18.37
2019-04-27T09:11:31.196Z,18.67
2019-04-27T09:14:19.498Z,21.67
2019-04-27T09:17:16.883Z,23.27
2019-04-27T09:19:59.068Z,20.20
2019-04-27T09:22:28.969Z,15.43
2019-04-27T09:24:59.508Z,14.37
2019-04-27T09:27:29.110Z,17.17
2019-04-27T09:29:59.600Z,12.47
2019-04-27T09:32:29.063Z,14.23
2019-04-27T09:34:58.442Z,13.57
2019-04-27T09:37:28.021Z,16.23
2019-04-27T09:40:03.110Z,15.77
2019-04-27T09:42:32.638Z,16.17
2019-04-27T09:45:02.168Z,14.70
2019-04-27T09:47:31.768Z,18.80
2019-04-27T09:53:18.585Z,18.63
2019-04-27T09:55:48.118Z,21.70
2019-04-27T09:58:18.444Z,17.93
2019-04-27T10:00:49.412Z,15.57
2019-04-27T10:03:21.711Z,17.83
2019-04-27T10:05:52.270Z,15.47
2019-04-27T10:08:21.917Z,17.27
2019-04-27T10:10:51.871Z,15.03
2019-04-27T10:13:21.190Z,16.30
2019-04-27T10:15:50.565Z,17.27
2019-04-27T10:18:19.868Z,13.27
2019-04-27T10:20:58.755Z,28.33
2019-04-27T10:23:20.504Z,17.63
2019-04-27T10:25:49.818Z,13.93
2019-04-27T10:28:19.366Z,18.80
2019-04-27T10:30:48.646Z,18.83
2019-04-27T10:33:45.884Z,12.60
2019-04-27T10:36:46.105Z,15.13
2019-04-27T10:39:17.024Z,24.40
2019-04-27T10:41:46.882Z,18.70
2019-04-27T10:44:19.654Z,16.63
2019-04-27T10:46:52.622Z,21.17
2019-04-27T10:49:24.044Z,15.13
2019-04-27T10:51:55.899Z,13.40
2019-04-27T10:54:29.990Z,12.07
2019-04-27T10:56:59.485Z,12.33
2019-04-27T10:59:30.430Z,13.70
2019-04-27T11:02:07.451Z,18.10
2019-04-27T11:05:07.084Z,6.83
2019-04-27T11:07:38.402Z,7.93
2019-04-27T11:10:18.191Z,8.30
2019-04-27T11:13:09.841Z,6.07
2019-04-27T11:15:46.036Z,9.50
2019-04-27T11:18:26.924Z,11.57
2019-04-27T11:20:58.609Z,9.33
2019-04-27T11:23:31.966Z,14.60
2019-04-27T11:26:03.054Z,10.47
2019-04-27T11:28:36.033Z,16.87
2019-04-27T11:31:10.654Z,8.47
2019-04-27T11:33:40.522Z,13.33
2019-04-27T11:36:27.893Z,9.03
2019-04-27T11:39:04.174Z,12.30
2019-04-27T11:41:34.192Z,13.30
2019-04-27T11:44:03.841Z,8.73
2019-04-27T11:46:42.006Z,8.17
2019-04-27T11:49:11.524Z,5.00
2019-04-27T11:51:52.273Z,8.00
2019-04-27T11:54:25.570Z,4.97
2019-04-27T11:57:00.007Z,6.80
2019-04-27T11:59:39.325Z,9.43
2019-04-27T12:02:12.751Z,8.77
2019-04-27T12:04:46.684Z,13.63
2019-04-27T12:07:29.564Z,8.30
2019-04-27T12:09:59.411Z,10.53
2019-04-27T12:12:30.422Z,5.77
2019-04-27T12:15:07.955Z,10.90
2019-04-27T12:17:42.466Z,9.87
2019-04-27T12:20:17.902Z,6.30
2019-04-27T12:22:50.400Z,9.73
2019-04-27T12:25:20.175Z,11.07
2019-04-27T12:28:11.505Z,12.40
2019-04-27T12:31:09.209Z,9.00
2019-04-27T12:33:50.744Z,10.90
2019-04-27T12:36:25.854Z,11.63
2019-04-27T12:38:58.960Z,11.67
2019-04-27T12:41:29.470Z,6.23
2019-04-27T12:43:59.094Z,9.37
2019-04-27T12:46:32.147Z,10.83
2019-04-27T12:49:10.749Z,13.47
2019-04-27T12:51:41.615Z,10.83
2019-04-27T12:54:36.313Z,10.67
2019-04-27T12:57:26.364Z,20.57
2019-04-27T13:00:23.290Z,15.60
2019-04-27T13:03:06.885Z,14.53
2019-04-27T13:05:38.752Z,14.70
2019-04-27T13:08:11.668Z,15.03
2019-04-27T13:10:41.320Z,18.00
2019-04-27T13:13:30.640Z,11.43
2019-04-27T13:16:06.695Z,9.50
2019-04-27T13:18:36.383Z,17.10
2019-04-27T13:21:15.732Z,24.07
2019-04-27T13:24:04.035Z,11.93
2019-04-27T13:29:25.633Z,10.67
2019-04-27T13:32:12.191Z,9.90
2019-04-27T13:34:46.218Z,15.93
2019-04-27T13:37:37.821Z,14.60
2019-04-27T13:40:13.688Z,16.77
2019-04-27T13:42:48.549Z,18.43
2019-04-27T13:45:31.811Z,20.07
2019-04-27T13:48:23.166Z,17.17
2019-04-27T13:51:32.514Z,7.73
2019-04-27T13:54:14.176Z,12.80
2019-04-27T13:56:36.927Z,10.87
2019-04-27T13:59:07.789Z,15.67
2019-04-27T14:02:00.412Z,16.67
2019-04-27T14:04:28.529Z,12.17
2019-04-27T14:07:00.173Z,14.90
2019-04-27T14:09:30.659Z,10.13
2019-04-27T14:12:21.192Z,16.80
2019-04-27T14:14:51.603Z,8.90
2019-04-27T14:17:43.877Z,6.90
2019-04-27T14:23:28.350Z,12.57
2019-04-27T14:26:00.932Z,10.63
2019-04-27T14:28:33.255Z,10.37
2019-04-27T14:31:39.555Z,16.30
2019-04-27T14:34:09.932Z,14.07
2019-04-27T14:36:58.704Z,11.83
2019-04-27T14:39:40.842Z,15.67
2019-04-27T14:45:09.639Z,15.90
2019-04-27T14:48:05.494Z,16.07
2019-04-27T14:51:30.864Z,16.73
2019-04-27T14:54:04.062Z,14.00
2019-04-27T14:56:35.611Z,15.27
2019-04-27T14:59:35.933Z,19.30
2019-04-27T15:02:30.327Z,17.20
2019-04-27T15:05:25.693Z,10.33
2019-04-27T15:11:59.677Z,13.47
2019-04-27T15:14:49.631Z,14.13
2019-04-27T15:17:50.748Z,25.60
2019-04-27T15:20:27.278Z,16.40
2019-04-27T15:25:57.816Z,12.63
2019-04-27T15:28:35.255Z,19.13
2019-04-27T15:31:34.419Z,38.40
2019-04-27T15:34:40.335Z,16.73
2019-04-27T15:38:11.265Z,13.20
2019-04-27T15:40:58.219Z,15.17
2019-04-27T15:43:41.894Z,12.93
2019-04-27T15:46:11.940Z,10.97
2019-04-27T15:48:43.607Z,8.43
2019-04-27T15:51:21.652Z,6.83
2019-04-27T15:54:01.975Z,4.83
2019-04-27T15:56:35.222Z,9.77
2019-04-27T15:59:16.051Z,8.67
2019-04-27T16:01:55.089Z,10.33
2019-04-27T16:04:38.150Z,10.67
2019-04-27T16:07:25.279Z,7.83
2019-04-27T16:10:00.901Z,7.17
2019-04-27T16:12:31.199Z,12.30
2019-04-27T16:15:05.074Z,9.03
2019-04-27T16:17:35.639Z,11.83
2019-04-27T16:20:06.107Z,13.90
2019-04-27T16:22:39.057Z,12.53
2019-04-27T16:25:10.865Z,12.03
2019-04-27T16:27:53.597Z,12.33
2019-04-27T16:31:24.832Z,9.47
2019-04-27T16:34:16.323Z,12.03
2019-04-27T16:36:54.606Z,8.30
2019-04-27T16:39:49.397Z,13.80
2019-04-27T16:42:49.897Z,7.20
2019-04-27T16:45:27.219Z,12.43
2019-04-27T16:48:04.889Z,6.67
2019-04-27T16:53:19.844Z,7.00
2019-04-27T16:55:59.464Z,8.67
2019-04-27T16:58:56.437Z,13.63
2019-04-27T17:02:42.977Z,15.40
2019-04-27T17:05:24.310Z,8.50
2019-04-27T17:08:03.456Z,8.53
2019-04-27T17:10:39.105Z,8.27
2019-04-27T17:13:30.587Z,8.17
2019-04-27T17:16:18.931Z,8.63
2019-04-27T17:21:48.526Z,10.57
2019-04-27T17:24:47.384Z,12.70
2019-04-27T17:27:22.072Z,10.50
2019-04-27T17:30:13.861Z,12.90
2019-04-27T17:33:24.720Z,9.17
2019-04-27T17:35:24.653Z,7.87
2019-04-27T17:38:59.975Z,11.00
2019-04-27T17:41:50.551Z,8.40
2019-04-27T17:44:59.061Z,14.50
2019-04-27T17:53:12.191Z,14.60
2019-04-27T17:58:52.280Z,13.73
2019-04-27T18:01:42.434Z,8.47
2019-04-27T18:04:06.440Z,9.23
2019-04-27T18:06:35.303Z,12.33
2019-04-27T18:09:39.952Z,14.30
2019-04-27T18:12:14.905Z,6.03
2019-04-27T18:14:47.837Z,11.47
2019-04-27T18:17:25.408Z,10.40
2019-04-27T18:20:04.361Z,7.87
2019-04-27T18:34:16.980Z,11.03
2019-04-27T18:36:55.279Z,12.40
2019-04-27T19:01:18.916Z,7.00
2019-04-27T19:04:20.695Z,7.23
2019-04-27T19:07:04.190Z,11.33
2019-04-27T19:09:42.356Z,8.17
2019-04-27T19:12:30.403Z,12.13
2019-04-27T19:15:00.428Z,7.00
2019-04-27T19:21:01.713Z,6.23
2019-04-27T19:23:41.577Z,9.80
2019-04-27T19:26:26.654Z,5.07
2019-04-27T19:29:29.259Z,9.57
2019-04-27T19:35:10.999Z,8.63
2019-04-27T19:38:13.404Z,5.30
2019-04-27T19:44:12.798Z,7.60
2019-04-27T21:01:05.694Z,6.87
2019-04-27T21:15:52.991Z,13.80
2019-04-27T21:18:44.091Z,10.27
2019-04-27T21:22:37.018Z,7.23
2019-04-27T21:25:07.140Z,10.97
2019-04-27T21:27:49.134Z,5.57
2019-04-27T21:30:28.313Z,7.80
2019-04-27T21:42:11.013Z,5.17
2019-04-27T21:59:52.559Z,8.37
2019-04-27T22:02:36.086Z,7.53
2019-04-27T22:05:52.397Z,8.67
2019-04-27T22:09:08.088Z,6.37
2019-04-27T22:12:44.869Z,5.20
2019-04-27T22:19:04.326Z,6.07
2019-04-27T22:21:34.545Z,5.60
2019-04-27T22:24:42.994Z,8.17
2019-04-27T22:27:12.609Z,5.33
2019-04-27T22:29:42.792Z,7.50
2019-04-27T22:32:20.322Z,7.00
2019-04-27T22:34:50.594Z,2.43
2019-04-27T22:37:21.313Z,5.27
2019-04-27T22:40:29.356Z,10.57
2019-04-27T22:43:12.589Z,6.33
2019-04-27T22:45:43.698Z,8.43
2019-04-27T22:48:13.220Z,6.67
2019-04-27T22:50:45.438Z,4.80
2019-04-27T22:53:16.983Z,4.57
2019-04-27T22:56:05.232Z,5.47
2019-04-27T22:58:36.732Z,3.43
2019-04-27T23:01:15.573Z,3.53
2019-04-27T23:03:49.410Z,5.73
2019-04-27T23:06:19.481Z,9.90
2019-04-27T23:08:48.971Z,11.07
2019-04-27T23:11:22.098Z,7.90
2019-04-27T23:13:52.538Z,7.07
2019-04-27T23:16:24.060Z,6.13
2019-04-27T23:18:53.774Z,4.53
2019-04-27T23:21:23.879Z,6.07
2019-04-27T23:23:53.964Z,4.73
2019-04-27T23:26:23.603Z,8.00
2019-04-27T23:28:55.240Z,4.53
2019-04-27T23:31:43.794Z,7.47
2019-04-27T23:34:15.915Z,4.70
2019-04-27T23:37:08.009Z,5.43
2019-04-27T23:39:42.726Z,7.93
2019-04-27T23:42:31.602Z,4.13
2019-04-27T23:45:03.602Z,4.87
2019-04-27T23:47:33.693Z,3.07
2019-04-27T23:50:18.836Z,5.20
2019-04-27T23:53:25.742Z,2.37
2019-04-27T23:56:08.417Z,3.90
2019-04-27T23:58:44.413Z,4.33
